createdAt,value
2023-01-15T00:00:18.642Z,92.40
2023-01-15T00:03:05.638Z,92.54
2023-01-15T00:05:36.323Z,92.78
2023-01-15T00:08:03.547Z,92.99
2023-01-15T00:10:30.952Z,92.30
2023-01-15T00:12:58.156Z,92.62
2023-01-15T00:15:26.007Z,92.34
2023-01-15T00:17:53.245Z,92.11
2023-01-15T00:20:20.686Z,92.57
2023-01-15T00:22:47.627Z,92.15
2023-01-15T00:25:33.711Z,92.20
2023-01-15T00:28:01.852Z,91.27
2023-01-15T00:30:29.390Z,91.64
2023-01-15T00:32:57.787Z,91.79
2023-01-15T00:35:25.711Z,91.51
2023-01-15T00:37:52.734Z,91.75
2023-01-15T00:40:22.030Z,91.71
2023-01-15T00:42:54.246Z,92.03
2023-01-15T00:45:22.890Z,92.12
2023-01-15T00:47:50.804Z,92.09
2023-01-15T00:50:18.445Z,92.29
2023-01-15T00:52:45.439Z,92.34
2023-01-15T00:55:12.909Z,92.49
2023-01-15T00:57:39.946Z,92.56
2023-01-15T01:00:07.855Z,92.32
2023-01-15T01:02:35.210Z,92.53
2023-01-15T01:05:02.632Z,91.95
2023-01-15T01:07:29.736Z,92.30
2023-01-15T01:09:57.045Z,91.81
2023-01-15T01:12:24.097Z,92.14
2023-01-15T01:14:51.578Z,92.14
2023-01-15T01:17:18.571Z,91.97
2023-01-15T01:19:46.099Z,91.98
2023-01-15T01:22:13.170Z,91.71
2023-01-15T01:24:40.461Z,91.81
2023-01-15T01:27:07.601Z,91.67
2023-01-15T01:29:34.960Z,91.58
2023-01-15T01:32:02.332Z,91.82
2023-01-15T01:34:29.750Z,91.72
2023-01-15T01:36:56.748Z,91.51
2023-01-15T01:39:24.081Z,91.82
2023-01-15T01:41:51.124Z,91.90
2023-01-15T01:44:33.729Z,91.83
2023-01-15T01:47:15.634Z,91.54
2023-01-15T01:49:44.631Z,91.23
2023-01-15T01:52:19.438Z,91.31
2023-01-15T01:54:49.577Z,90.91
2023-01-15T01:57:17.711Z,90.79
2023-01-15T01:59:45.709Z,91.03
2023-01-15T02:02:13.401Z,90.94
2023-01-15T02:04:41.310Z,90.64
2023-01-15T02:07:08.840Z,90.52
2023-01-15T02:09:36.301Z,90.24
2023-01-15T02:12:28.307Z,90.68
2023-01-15T02:15:12.773Z,90.73
2023-01-15T02:17:48.679Z,90.17
2023-01-15T02:20:28.931Z,90.35
2023-01-15T02:23:23.793Z,90.36
2023-01-15T02:26:14.158Z,90.26
2023-01-15T02:28:45.205Z,90.16
2023-01-15T02:31:17.940Z,90.51
2023-01-15T02:34:03.879Z,90.28
2023-01-15T02:36:35.434Z,90.39
2023-01-15T02:39:07.248Z,90.83
2023-01-15T02:41:41.210Z,90.27
2023-01-15T02:44:10.801Z,90.43
2023-01-15T02:46:39.682Z,90.31
2023-01-15T02:49:09.923Z,89.93
2023-01-15T02:51:46.130Z,90.19
2023-01-15T02:54:16.631Z,90.38
2023-01-15T02:56:48.425Z,90.26
2023-01-15T02:59:34.674Z,90.57
2023-01-15T03:02:05.362Z,90.47
2023-01-15T03:04:32.552Z,90.54
2023-01-15T03:07:12.691Z,90.42
2023-01-15T03:09:39.848Z,90.30
2023-01-15T03:12:56.013Z,90.34
2023-01-15T03:15:42.676Z,90.24
2023-01-15T03:18:13.262Z,90.40
2023-01-15T03:20:46.144Z,90.45
2023-01-15T03:23:16.159Z,90.60
2023-01-15T03:25:45.991Z,90.85
2023-01-15T03:28:15.905Z,90.96
2023-01-15T03:30:42.779Z,90.95
2023-01-15T03:33:12.794Z,90.92
2023-01-15T03:35:39.689Z,90.88
2023-01-15T03:38:07.007Z,90.65
2023-01-15T03:40:38.989Z,90.48
2023-01-15T03:43:32.605Z,90.53
2023-01-15T03:46:04.671Z,90.67
2023-01-15T03:48:43.036Z,90.89
2023-01-15T03:51:20.248Z,90.48
2023-01-15T03:53:57.960Z,90.73
2023-01-15T03:56:28.144Z,90.47
2023-01-15T03:59:16.738Z,89.85
2023-01-15T04:01:47.001Z,89.72
2023-01-15T04:04:16.137Z,89.56
2023-01-15T04:06:44.822Z,89.44
2023-01-15T04:09:13.542Z,89.71
2023-01-15T04:11:40.582Z,89.73
2023-01-15T04:14:08.083Z,90.08
2023-01-15T04:16:35.337Z,90.11
2023-01-15T04:19:02.642Z,90.18
2023-01-15T04:21:29.747Z,89.90
2023-01-15T04:23:57.111Z,89.82
2023-01-15T04:26:24.546Z,89.82
2023-01-15T04:28:52.047Z,90.09
2023-01-15T04:31:19.101Z,90.24
2023-01-15T04:33:46.419Z,90.63
2023-01-15T04:36:14.701Z,90.78
2023-01-15T04:38:42.174Z,90.72
2023-01-15T04:41:28.101Z,90.48
2023-01-15T04:44:07.750Z,90.42
2023-01-15T04:46:40.496Z,90.79
2023-01-15T04:49:14.033Z,90.89
2023-01-15T04:51:42.108Z,91.33
2023-01-15T04:54:10.533Z,90.98
2023-01-15T04:56:42.131Z,91.26
2023-01-15T04:59:09.945Z,91.03
2023-01-15T05:01:37.520Z,91.43
2023-01-15T05:04:05.858Z,91.23
2023-01-15T05:06:33.473Z,91.51
2023-01-15T05:09:01.615Z,91.59
2023-01-15T05:11:28.874Z,91.49
2023-01-15T05:13:56.861Z,91.59
2023-01-15T05:16:26.716Z,91.52
2023-01-15T05:18:58.336Z,91.70
2023-01-15T05:21:28.097Z,92.07
2023-01-15T05:23:57.655Z,91.72
2023-01-15T05:26:26.461Z,92.02
2023-01-15T05:28:55.794Z,92.19
2023-01-15T05:31:24.412Z,92.31
2023-01-15T05:33:53.089Z,92.24
2023-01-15T05:36:23.710Z,92.15
2023-01-15T05:38:53.838Z,92.46
2023-01-15T05:41:41.138Z,92.82
2023-01-15T05:44:12.262Z,92.92
2023-01-15T05:46:40.879Z,92.78
2023-01-15T05:49:11.533Z,92.92
2023-01-15T05:51:39.555Z,93.18
2023-01-15T05:54:09.425Z,93.45
2023-01-15T05:56:37.699Z,93.58
2023-01-15T05:59:06.501Z,93.75
2023-01-15T06:01:34.054Z,93.87
2023-01-15T06:04:03.377Z,93.93
2023-01-15T06:06:30.877Z,93.61
2023-01-15T06:09:00.798Z,93.84
2023-01-15T06:11:27.824Z,93.66
2023-01-15T06:13:55.186Z,94.22
2023-01-15T06:16:23.004Z,94.20
2023-01-15T06:18:51.099Z,93.92
2023-01-15T06:21:18.233Z,93.73
2023-01-15T06:23:45.690Z,94.08
2023-01-15T06:26:16.708Z,93.86
2023-01-15T06:28:44.924Z,93.34
2023-01-15T06:31:15.300Z,93.69
2023-01-15T06:33:42.887Z,93.92
2023-01-15T06:36:12.722Z,93.26
2023-01-15T06:38:41.170Z,93.14
2023-01-15T06:41:31.558Z,93.35
2023-01-15T06:44:17.688Z,93.49
2023-01-15T06:47:05.296Z,93.94
2023-01-15T06:49:33.616Z,93.65
2023-01-15T06:52:03.740Z,93.72
2023-01-15T06:54:32.258Z,93.88
2023-01-15T06:56:59.429Z,93.95
2023-01-15T06:59:26.757Z,94.20
2023-01-15T07:01:54.161Z,94.25
2023-01-15T07:04:22.566Z,94.10
2023-01-15T07:06:49.698Z,93.82
2023-01-15T07:09:17.310Z,93.81
2023-01-15T07:11:53.221Z,93.48
2023-01-15T07:18:30.568Z,93.75
2023-01-15T07:20:58.631Z,93.39
2023-01-15T07:23:28.539Z,93.45
2023-01-15T07:25:56.210Z,93.06
2023-01-15T07:28:24.134Z,93.03
2023-01-15T07:30:55.907Z,93.22
2023-01-15T07:33:23.206Z,93.04
2023-01-15T07:35:50.531Z,93.23
2023-01-15T07:38:20.942Z,93.64
2023-01-15T07:41:09.943Z,93.61
2023-01-15T07:44:03.553Z,93.12
2023-01-15T07:46:50.652Z,93.27
2023-01-15T07:49:40.267Z,92.82
2023-01-15T07:52:25.655Z,92.90
2023-01-15T07:54:53.504Z,92.46
2023-01-15T07:57:51.707Z,91.91
2023-01-15T08:00:23.271Z,91.78
2023-01-15T08:02:51.408Z,92.58
2023-01-15T08:05:21.030Z,92.39
2023-01-15T08:07:57.582Z,92.28
2023-01-15T08:10:27.863Z,92.44
2023-01-15T08:13:14.151Z,92.99
2023-01-15T08:15:48.527Z,92.70
2023-01-15T08:18:18.166Z,92.82
2023-01-15T08:20:51.670Z,92.68
2023-01-15T08:23:19.435Z,93.06
2023-01-15T08:25:49.647Z,92.89
2023-01-15T08:28:17.017Z,93.04
2023-01-15T08:30:44.245Z,92.61
2023-01-15T08:40:24.306Z,92.47
2023-01-15T08:46:01.273Z,92.23
2023-01-15T08:48:37.037Z,92.44
2023-01-15T08:51:10.861Z,92.27
2023-01-15T08:53:40.773Z,92.73
2023-01-15T08:56:22.288Z,93.07
2023-01-15T09:06:40.555Z,92.36
2023-01-15T09:09:27.253Z,92.14
2023-01-15T09:12:01.028Z,92.08
2023-01-15T09:14:59.171Z,92.42
2023-01-15T09:18:02.700Z,92.09
2023-01-15T09:42:22.083Z,90.24
2023-01-15T09:45:33.833Z,90.17
2023-01-15T09:48:17.339Z,90.55
2023-01-15T09:50:54.485Z,90.12
2023-01-15T09:53:38.145Z,90.10
2023-01-15T09:56:21.865Z,89.29
2023-01-15T09:59:01.229Z,89.41
2023-01-15T10:01:31.862Z,88.73
2023-01-15T10:04:09.625Z,88.96
2023-01-15T10:06:49.916Z,88.98
2023-01-15T10:09:23.685Z,88.38
2023-01-15T10:12:40.767Z,88.15
2023-01-15T10:15:17.022Z,88.43
2023-01-15T10:17:58.741Z,87.70
2023-01-15T10:21:08.301Z,87.69
2023-01-15T10:23:42.171Z,87.78
2023-01-15T10:26:35.370Z,87.65
2023-01-15T10:29:27.025Z,88.20
2023-01-15T10:32:03.757Z,88.13
2023-01-15T10:35:18.803Z,88.01
2023-01-15T10:38:01.413Z,87.76
2023-01-15T10:40:47.251Z,87.79
2023-01-15T10:43:26.315Z,88.11
2023-01-15T10:46:02.176Z,87.89
2023-01-15T10:48:43.965Z,87.79
2023-01-15T10:51:26.059Z,87.63
2023-01-15T10:54:05.096Z,87.41
2023-01-15T10:56:38.083Z,87.07
2023-01-15T10:59:36.939Z,87.15
2023-01-15T11:02:25.201Z,87.39
2023-01-15T11:04:55.888Z,87.26
2023-01-15T11:07:32.314Z,86.97
2023-01-15T11:10:05.624Z,87.06
2023-01-15T11:12:57.152Z,86.83
2023-01-15T11:15:44.935Z,87.15
2023-01-15T11:18:34.570Z,87.17
2023-01-15T11:21:03.196Z,87.29
2023-01-15T11:23:36.516Z,87.39
2023-01-15T11:26:07.269Z,87.44
2023-01-15T11:28:43.180Z,87.64
2023-01-15T11:31:18.259Z,86.90
2023-01-15T11:34:03.965Z,86.54
2023-01-15T11:36:32.975Z,87.37
2023-01-15T11:39:00.208Z,87.07
2023-01-15T11:41:50.787Z,87.40
2023-01-15T11:44:38.589Z,87.19
2023-01-15T11:47:35.736Z,87.21
2023-01-15T11:50:21.950Z,87.54
2023-01-15T11:52:55.988Z,88.31
2023-01-15T11:55:28.327Z,87.72
2023-01-15T11:57:58.661Z,86.95
2023-01-15T12:00:33.720Z,87.13
2023-01-15T12:03:13.201Z,87.11
2023-01-15T12:05:59.319Z,86.78
2023-01-15T12:08:32.918Z,87.06
2023-01-15T12:11:26.690Z,87.25
2023-01-15T12:14:28.329Z,87.88
2023-01-15T12:17:36.653Z,88.31
2023-01-15T12:20:29.620Z,88.24
2023-01-15T12:23:33.459Z,88.52
2023-01-15T12:26:22.756Z,88.31
2023-01-15T12:28:58.835Z,88.80
2023-01-15T12:31:50.894Z,88.58
2023-01-15T12:34:25.657Z,88.33
2023-01-15T12:36:58.877Z,88.37
2023-01-15T12:39:40.465Z,88.45
2023-01-15T12:42:32.914Z,88.26
2023-01-15T12:45:07.905Z,87.87
2023-01-15T12:48:03.539Z,87.92
2023-01-15T12:50:50.047Z,87.18
2023-01-15T12:53:32.990Z,87.72
2023-01-15T12:56:37.275Z,87.90
2023-01-15T12:59:17.032Z,87.63
2023-01-15T13:01:53.170Z,88.35
2023-01-15T13:04:40.713Z,88.63
2023-01-15T13:07:30.304Z,88.37
2023-01-15T13:10:15.195Z,88.84
2023-01-15T13:12:42.258Z,88.70
2023-01-15T13:15:15.875Z,89.23
2023-01-15T13:18:23.332Z,89.02
2023-01-15T13:20:54.286Z,88.75
2023-01-15T13:23:52.552Z,88.94
2023-01-15T13:26:50.709Z,89.45
2023-01-15T13:29:24.875Z,89.71
2023-01-15T13:32:29.707Z,90.16
2023-01-15T13:34:57.743Z,90.65
2023-01-15T13:37:38.760Z,90.79
2023-01-15T13:40:37.487Z,90.65
2023-01-15T13:43:07.981Z,90.94
2023-01-15T13:45:48.617Z,91.09
2023-01-15T13:48:37.263Z,91.55
2023-01-15T13:51:07.559Z,92.37
2023-01-15T13:53:55.158Z,92.61
2023-01-15T13:56:32.979Z,92.73
2023-01-15T13:59:02.451Z,92.84
2023-01-15T14:01:37.648Z,92.77
2023-01-15T14:04:17.738Z,92.75
2023-01-15T14:06:52.197Z,93.18
2023-01-15T14:09:23.245Z,93.46
2023-01-15T14:12:12.621Z,93.65
2023-01-15T14:15:17.226Z,93.75
2023-01-15T14:18:05.370Z,94.01
2023-01-15T14:20:47.045Z,94.17
2023-01-15T14:23:58.376Z,94.23
2023-01-15T14:26:52.750Z,94.34
2023-01-15T14:29:50.898Z,94.28
2023-01-15T14:32:51.618Z,94.70
2023-01-15T14:35:24.363Z,94.77
2023-01-15T14:37:56.478Z,94.71
2023-01-15T14:40:31.236Z,94.85
2023-01-15T14:43:07.191Z,95.21
2023-01-15T14:45:46.800Z,95.03
2023-01-15T14:48:29.096Z,95.03
2023-01-15T14:51:38.200Z,94.99
2023-01-15T14:54:11.864Z,95.18
2023-01-15T14:57:16.672Z,95.52
2023-01-15T14:59:57.959Z,95.60
2023-01-15T15:02:38.052Z,95.30
2023-01-15T15:05:12.801Z,95.42
2023-01-15T15:07:48.697Z,95.94
2023-01-15T15:10:51.746Z,96.18
2023-01-15T15:13:40.344Z,95.95
2023-01-15T15:16:24.371Z,96.06
2023-01-15T15:19:02.639Z,96.16
2023-01-15T15:21:34.085Z,96.07
2023-01-15T15:24:23.096Z,95.61
2023-01-15T15:26:50.888Z,95.63
2023-01-15T15:29:21.037Z,95.68
2023-01-15T15:31:54.892Z,95.31
2023-01-15T15:34:41.148Z,95.34
2023-01-15T15:37:26.521Z,95.08
2023-01-15T15:40:18.834Z,95.14
2023-01-15T15:43:21.981Z,94.96
2023-01-15T15:46:15.391Z,95.54
2023-01-15T15:49:06.134Z,95.13
2023-01-15T15:51:35.830Z,95.03
2023-01-15T15:54:20.072Z,95.10
2023-01-15T15:57:18.497Z,95.60
2023-01-15T15:59:51.395Z,95.64
2023-01-15T16:02:56.448Z,95.79
2023-01-15T16:05:32.752Z,95.92
2023-01-15T16:08:19.487Z,95.48
2023-01-15T16:10:51.349Z,95.65
2023-01-15T16:13:32.749Z,95.97
2023-01-15T16:16:03.116Z,95.73
2023-01-15T16:18:41.115Z,96.21
2023-01-15T16:21:11.648Z,96.23
2023-01-15T16:23:38.660Z,96.56
2023-01-15T16:26:16.451Z,96.69
2023-01-15T16:28:48.587Z,96.80
2023-01-15T16:31:18.770Z,96.65
2023-01-15T16:33:47.645Z,96.66
2023-01-15T16:36:17.236Z,96.82
2023-01-15T16:38:48.916Z,96.69
2023-01-15T16:41:27.671Z,96.92
2023-01-15T16:44:01.814Z,96.76
2023-01-15T16:46:33.881Z,96.88
2023-01-15T16:49:22.306Z,96.93
2023-01-15T16:51:51.320Z,96.83
2023-01-15T16:54:30.693Z,97.10
2023-01-15T16:57:00.005Z,96.69
2023-01-15T16:59:28.865Z,97.06
2023-01-15T17:02:18.025Z,96.67
2023-01-15T17:07:41.136Z,96.55
2023-01-15T17:10:25.610Z,97.04
2023-01-15T17:12:57.329Z,97.09
2023-01-15T17:15:29.716Z,96.87
2023-01-15T17:17:57.528Z,97.11
2023-01-15T17:23:16.712Z,97.37
2023-01-15T17:25:48.248Z,97.30
2023-01-15T17:28:16.523Z,96.73
2023-01-15T17:30:45.856Z,96.75
2023-01-15T17:33:14.742Z,96.78
2023-01-15T17:35:42.877Z,96.92
2023-01-15T17:38:14.118Z,97.02
2023-01-15T17:40:41.601Z,96.79
2023-01-15T17:43:13.420Z,96.94
2023-01-15T17:45:41.032Z,96.77
2023-01-15T17:48:09.141Z,96.98
2023-01-15T17:50:41.210Z,96.83
2023-01-15T17:53:12.302Z,97.18
2023-01-15T17:55:58.061Z,97.09
2023-01-15T17:58:46.979Z,97.13
2023-01-15T18:01:42.544Z,96.90
2023-01-15T18:04:42.965Z,97.28
2023-01-15T18:07:12.346Z,96.93
2023-01-15T18:09:40.536Z,97.17
2023-01-15T18:12:08.885Z,97.10
2023-01-15T18:14:37.512Z,96.88
2023-01-15T18:17:05.218Z,96.78
2023-01-15T18:19:32.869Z,97.14
2023-01-15T18:22:00.210Z,97.19
2023-01-15T18:24:28.910Z,97.08
2023-01-15T18:26:55.972Z,96.92
2023-01-15T18:29:25.488Z,97.03
2023-01-15T18:31:52.498Z,97.30
2023-01-15T18:34:20.850Z,97.06
2023-01-15T18:37:09.252Z,97.29
2023-01-15T18:39:37.548Z,97.10
2023-01-15T18:42:05.797Z,97.48
2023-01-15T18:44:52.048Z,97.29
2023-01-15T18:47:19.330Z,97.42
2023-01-15T18:49:48.649Z,97.37
2023-01-15T18:52:40.039Z,97.68
2023-01-15T18:55:08.807Z,97.58
2023-01-15T18:57:36.494Z,97.73
2023-01-15T19:00:05.463Z,97.81
2023-01-15T19:02:32.647Z,98.10
2023-01-15T19:05:00.151Z,98.28
2023-01-15T19:07:27.283Z,97.99
2023-01-15T19:09:55.023Z,98.31
2023-01-15T19:12:23.267Z,98.33
2023-01-15T19:15:10.019Z,98.30
2023-01-15T19:17:57.256Z,98.51
2023-01-15T19:20:26.514Z,98.60
2023-01-15T19:23:04.161Z,99.04
2023-01-15T19:25:43.697Z,98.70
2023-01-15T19:28:15.960Z,98.79
2023-01-15T19:31:05.762Z,98.80
2023-01-15T19:33:33.827Z,99.31
2023-01-15T19:36:02.872Z,99.06
2023-01-15T19:38:34.031Z,99.36
2023-01-15T19:41:21.298Z,99.05
2023-01-15T19:44:14.615Z,99.28
2023-01-15T19:47:04.217Z,99.16
2023-01-15T19:50:03.852Z,98.87
2023-01-15T19:52:53.538Z,98.71
2023-01-15T19:55:25.602Z,99.32
2023-01-15T19:58:01.064Z,98.91
2023-01-15T20:00:29.677Z,99.12
2023-01-15T20:03:00.533Z,99.09
2023-01-15T20:05:30.043Z,98.88
2023-01-15T20:07:58.226Z,98.69
2023-01-15T20:10:28.280Z,98.96
2023-01-15T20:13:17.887Z,98.86
2023-01-15T20:15:48.714Z,99.21
2023-01-15T20:21:00.126Z,99.17
2023-01-15T20:23:27.148Z,99.06
2023-01-15T20:25:54.737Z,98.94
2023-01-15T20:28:33.225Z,99.02
2023-01-15T20:31:04.605Z,99.17
2023-01-15T20:33:33.418Z,99.13
2023-01-15T20:36:04.214Z,99.32
2023-01-15T20:38:59.553Z,99.02
2023-01-15T20:41:45.641Z,99.39
2023-01-15T20:44:31.657Z,99.18
2023-01-15T20:47:03.596Z,99.29
2023-01-15T20:49:33.566Z,99.01
2023-01-15T20:52:01.498Z,99.15
2023-01-15T20:54:28.930Z,98.96
2023-01-15T20:56:56.308Z,98.74
2023-01-15T20:59:23.331Z,98.96
2023-01-15T21:01:52.432Z,98.76
2023-01-15T21:04:20.508Z,98.73
2023-01-15T21:06:47.894Z,98.67
2023-01-15T21:09:14.880Z,98.87
2023-01-15T21:11:42.943Z,98.82
2023-01-15T21:14:10.549Z,98.63
2023-01-15T21:16:43.160Z,98.85
2023-01-15T21:19:10.463Z,98.69
2023-01-15T21:21:38.686Z,98.54
2023-01-15T21:24:05.945Z,98.02
2023-01-15T21:26:36.132Z,97.74
2023-01-15T21:29:03.679Z,98.17
2023-01-15T21:31:31.160Z,98.01
2023-01-15T21:33:59.142Z,97.92
2023-01-15T21:36:26.467Z,97.77
2023-01-15T21:38:54.738Z,97.82
2023-01-15T21:41:46.628Z,97.69
2023-01-15T21:44:38.102Z,97.39
2023-01-15T21:47:08.338Z,97.21
2023-01-15T21:49:35.876Z,97.48
2023-01-15T21:52:06.520Z,97.29
2023-01-15T21:54:33.737Z,97.05
2023-01-15T21:57:01.941Z,97.09
2023-01-15T21:59:28.943Z,97.28
2023-01-15T22:02:01.457Z,97.08
2023-01-15T22:04:30.653Z,97.31
2023-01-15T22:06:59.584Z,96.99
2023-01-15T22:09:26.568Z,96.74
2023-01-15T22:11:54.185Z,96.72
2023-01-15T22:14:32.664Z,96.92
2023-01-15T22:17:03.095Z,96.80
2023-01-15T22:19:32.182Z,96.86
2023-01-15T22:22:02.639Z,96.42
2023-01-15T22:24:32.260Z,96.84
2023-01-15T22:27:00.889Z,96.72
2023-01-15T22:29:32.564Z,96.46
2023-01-15T22:32:00.939Z,96.34
2023-01-15T22:34:28.404Z,96.35
2023-01-15T22:36:57.438Z,96.20
2023-01-15T22:39:25.860Z,96.23
2023-01-15T22:42:13.788Z,96.42
2023-01-15T22:44:44.151Z,96.40
2023-01-15T22:47:12.664Z,96.49
2023-01-15T22:49:39.789Z,96.44
2023-01-15T22:52:07.536Z,96.51
2023-01-15T22:54:34.860Z,96.54
2023-01-15T22:57:02.660Z,96.37
2023-01-15T22:59:30.018Z,96.07
2023-01-15T23:01:57.625Z,96.00
2023-01-15T23:04:25.767Z,96.04
2023-01-15T23:06:53.418Z,95.93
2023-01-15T23:09:22.491Z,95.87
2023-01-15T23:11:51.587Z,95.62
2023-01-15T23:14:21.360Z,95.93
2023-01-15T23:16:50.627Z,95.72
2023-01-15T23:19:18.790Z,95.83
2023-01-15T23:21:46.176Z,95.45
2023-01-15T23:24:13.273Z,95.60
2023-01-15T23:26:41.123Z,95.26
2023-01-15T23:29:08.227Z,94.62
2023-01-15T23:31:35.710Z,95.15
2023-01-15T23:34:02.995Z,95.04
2023-01-15T23:36:30.444Z,94.99
2023-01-15T23:38:57.822Z,95.01
2023-01-15T23:41:44.312Z,94.69
2023-01-15T23:44:38.481Z,94.75
2023-01-15T23:47:07.661Z,94.79
2023-01-15T23:49:35.772Z,94.54
2023-01-15T23:52:03.981Z,94.93
2023-01-15T23:54:31.910Z,94.85
2023-01-15T23:57:01.584Z,94.57
2023-01-15T23:59:29.465Z,94.33
